BCS473 LEVT-EGNX
Flight info
| Callsign | BCS473 |
|---|---|
| Flight time | 1h 36m |
| Altitude | 20000 |
| Route | BLV P87 BELEN/N0428F340 DCT DIDIG UP87 MOKOR UN873 OLEBA DCT ROGPU DCT DIKRO UM184 EPATI/N0404F320 UM184 HEMEL |
| Aircraft | B738/M-SDFGHIJ1RWY/LB1 |
Departure
| Time | 2026-05-04 21:46 |
|---|---|
| Airport | Vitoria Airport (LEVT) |
Arrival
| Time | 2026-05-04 23:23 |
|---|---|
| Airport | East Midlands Airport (EGNX) |
| Time | Latitude | Longitude | Altitude | Speed | Heading |
|---|---|---|---|---|---|
| 2026-05-04 21:23 | 42.87668 | -2.73669 | 1676 ft | 0 kts | 34° |
| 2026-05-04 21:40 | 42.87671 | -2.73666 | 1676 ft | 2 kts | 34° |
| 2026-05-04 21:40 | 42.87687 | -2.73647 | 1682 ft | 4 kts | 49° |
| 2026-05-04 21:41 | 42.87705 | -2.73597 | 1676 ft | 7 kts | 66° |
| 2026-05-04 21:41 | 42.87745 | -2.73538 | 1676 ft | 10 kts | 35° |
| 2026-05-04 21:41 | 42.87802 | -2.73483 | 1676 ft | 7 kts | 36° |
| 2026-05-04 21:41 | 42.87814 | -2.73425 | 1676 ft | 7 kts | 110° |
| 2026-05-04 21:42 | 42.87787 | -2.73372 | 1676 ft | 7 kts | 126° |
| 2026-05-04 21:42 | 42.87758 | -2.73322 | 1676 ft | 7 kts | 139° |
| 2026-05-04 21:42 | 42.87715 | -2.73313 | 1676 ft | 6 kts | 195° |
| 2026-05-04 21:42 | 42.87677 | -2.73345 | 1676 ft | 6 kts | 216° |
| 2026-05-04 21:43 | 42.87639 | -2.73383 | 1676 ft | 8 kts | 216° |
| 2026-05-04 21:43 | 42.87589 | -2.73432 | 1682 ft | 10 kts | 216° |
| 2026-05-04 21:43 | 42.87525 | -2.73494 | 1680 ft | 13 kts | 216° |
| 2026-05-04 21:43 | 42.87449 | -2.73569 | 1685 ft | 14 kts | 216° |
| 2026-05-04 21:44 | 42.87373 | -2.73644 | 1677 ft | 13 kts | 216° |
| 2026-05-04 21:44 | 42.87300 | -2.73716 | 1683 ft | 13 kts | 216° |
| 2026-05-04 21:44 | 42.87229 | -2.73785 | 1679 ft | 12 kts | 216° |
| 2026-05-04 21:44 | 42.87160 | -2.73853 | 1684 ft | 12 kts | 216° |
| 2026-05-04 21:45 | 42.87111 | -2.73861 | 1680 ft | 7 kts | 148° |
| 2026-05-04 21:45 | 42.87081 | -2.73807 | 1677 ft | 7 kts | 125° |
| 2026-05-04 21:45 | 42.87053 | -2.73745 | 1683 ft | 8 kts | 110° |
| 2026-05-04 21:45 | 42.87056 | -2.73664 | 1681 ft | 9 kts | 64° |
| 2026-05-04 21:46 | 42.87144 | -2.73568 | 1676 ft | 39 kts | 35° |
| 2026-05-04 21:46 | 42.87568 | -2.73151 | 1681 ft | 109 kts | 36° |
| 2026-05-04 21:46 | 42.88353 | -2.72383 | 1693 ft | 165 kts | 35° |
| 2026-05-04 21:46 | 42.89324 | -2.71433 | 2308 ft | 172 kts | 36° |
| 2026-05-04 21:47 | 42.90303 | -2.70470 | 3100 ft | 174 kts | 35° |
| 2026-05-04 21:47 | 42.91293 | -2.69500 | 3887 ft | 176 kts | 34° |
| 2026-05-04 21:47 | 42.92324 | -2.68580 | 4607 ft | 185 kts | 32° |
| 2026-05-04 21:47 | 42.93479 | -2.67523 | 4868 ft | 212 kts | 32° |
| 2026-05-04 21:48 | 42.94717 | -2.66376 | 5316 ft | 222 kts | 32° |
| 2026-05-04 21:48 | 42.96046 | -2.65147 | 5641 ft | 244 kts | 32° |
| 2026-05-04 21:48 | 42.97530 | -2.63769 | 5982 ft | 267 kts | 33° |
| 2026-05-04 21:48 | 42.99091 | -2.62308 | 6732 ft | 273 kts | 33° |
| 2026-05-04 21:49 | 43.00673 | -2.60818 | 7524 ft | 280 kts | 33° |
| 2026-05-04 21:49 | 43.02291 | -2.59300 | 8318 ft | 284 kts | 32° |
| 2026-05-04 21:49 | 43.03932 | -2.57763 | 9079 ft | 288 kts | 32° |
| 2026-05-04 21:49 | 43.05600 | -2.56199 | 9819 ft | 293 kts | 32° |
| 2026-05-04 21:50 | 43.07308 | -2.54619 | 10540 ft | 298 kts | 28° |
| 2026-05-04 21:50 | 43.09252 | -2.53698 | 11226 ft | 299 kts | 2° |
| 2026-05-04 21:50 | 43.11290 | -2.54065 | 11959 ft | 297 kts | 334° |
| 2026-05-04 21:50 | 43.12988 | -2.55623 | 12715 ft | 294 kts | 313° |
| 2026-05-04 21:51 | 43.14231 | -2.57830 | 13490 ft | 294 kts | 299° |
| 2026-05-04 21:51 | 43.15316 | -2.60228 | 14219 ft | 298 kts | 298° |
| 2026-05-04 21:51 | 43.16402 | -2.62669 | 14898 ft | 306 kts | 298° |
| 2026-05-04 21:51 | 43.17582 | -2.65240 | 15082 ft | 331 kts | 299° |
| 2026-05-04 21:52 | 43.18855 | -2.67954 | 15516 ft | 344 kts | 300° |
| 2026-05-04 21:52 | 43.20168 | -2.70732 | 16221 ft | 348 kts | 300° |
| 2026-05-04 21:52 | 43.21475 | -2.73495 | 16945 ft | 352 kts | 300° |
| 2026-05-04 21:52 | 43.22813 | -2.76330 | 17663 ft | 356 kts | 299° |
| 2026-05-04 21:53 | 43.24164 | -2.79199 | 18362 ft | 360 kts | 299° |
| 2026-05-04 21:53 | 43.25529 | -2.82102 | 19012 ft | 364 kts | 299° |
| 2026-05-04 21:53 | 43.26907 | -2.85039 | 19648 ft | 368 kts | 299° |
| 2026-05-04 21:53 | 43.28363 | -2.87958 | 20274 ft | 375 kts | 307° |
| 2026-05-04 21:54 | 43.30440 | -2.90215 | 20829 ft | 390 kts | 330° |
| 2026-05-04 21:54 | 43.33062 | -2.91309 | 21449 ft | 401 kts | 351° |
| 2026-05-04 21:54 | 43.35867 | -2.91119 | 22014 ft | 409 kts | 9° |
| 2026-05-04 21:54 | 43.38671 | -2.90322 | 22583 ft | 414 kts | 11° |
| 2026-05-04 21:55 | 43.41492 | -2.89434 | 23103 ft | 418 kts | 12° |
| 2026-05-04 21:55 | 43.44336 | -2.88530 | 23640 ft | 421 kts | 11° |
| 2026-05-04 21:55 | 43.47180 | -2.87646 | 24139 ft | 425 kts | 11° |
| 2026-05-04 21:55 | 43.50078 | -2.86767 | 24653 ft | 428 kts | 11° |
| 2026-05-04 21:56 | 43.53001 | -2.85899 | 25141 ft | 431 kts | 11° |
| 2026-05-04 21:56 | 43.55944 | -2.85034 | 25582 ft | 434 kts | 11° |
| 2026-05-04 21:56 | 43.58911 | -2.84165 | 26040 ft | 437 kts | 11° |
| 2026-05-04 21:56 | 43.61897 | -2.83288 | 26492 ft | 440 kts | 11° |
| 2026-05-04 21:57 | 43.64904 | -2.82403 | 26920 ft | 443 kts | 11° |
| 2026-05-04 21:57 | 43.67933 | -2.81510 | 27322 ft | 447 kts | 11° |
| 2026-05-04 21:57 | 43.70979 | -2.80574 | 27753 ft | 449 kts | 12° |
| 2026-05-04 21:57 | 43.73991 | -2.79599 | 28156 ft | 451 kts | 12° |
| 2026-05-04 21:58 | 43.77057 | -2.78589 | 28520 ft | 454 kts | 12° |
| 2026-05-04 21:58 | 43.80141 | -2.77577 | 28879 ft | 457 kts | 12° |
| 2026-05-04 21:58 | 43.83244 | -2.76563 | 29226 ft | 460 kts | 12° |
| 2026-05-04 21:58 | 43.86362 | -2.75546 | 29641 ft | 460 kts | 12° |
| 2026-05-04 21:59 | 43.89471 | -2.74531 | 30129 ft | 459 kts | 12° |
| 2026-05-04 21:59 | 43.92578 | -2.73566 | 30576 ft | 457 kts | 10° |
| 2026-05-04 21:59 | 43.95719 | -2.72777 | 30953 ft | 458 kts | 8° |
| 2026-05-04 21:59 | 43.98874 | -2.72087 | 31296 ft | 459 kts | 7° |
| 2026-05-04 22:00 | 44.02048 | -2.71432 | 31695 ft | 459 kts | 7° |
| 2026-05-04 22:00 | 44.05162 | -2.70791 | 32114 ft | 458 kts | 7° |
| 2026-05-04 22:00 | 44.08315 | -2.70130 | 32452 ft | 459 kts | 8° |
| 2026-05-04 22:00 | 44.11479 | -2.69452 | 32782 ft | 460 kts | 8° |
| 2026-05-04 22:01 | 44.14648 | -2.68761 | 33133 ft | 460 kts | 8° |
| 2026-05-04 22:01 | 44.17819 | -2.68061 | 33491 ft | 460 kts | 8° |
| 2026-05-04 22:01 | 44.20981 | -2.67358 | 33852 ft | 459 kts | 8° |
| 2026-05-04 22:01 | 44.24152 | -2.66652 | 34037 ft | 463 kts | 7° |
| 2026-05-04 22:02 | 44.27348 | -2.65939 | 34021 ft | 467 kts | 7° |
| 2026-05-04 22:02 | 44.33739 | -2.64512 | 34015 ft | 461 kts | 8° |
| 2026-05-04 22:03 | 44.39996 | -2.63108 | 34030 ft | 458 kts | 8° |
| 2026-05-04 22:03 | 44.46303 | -2.61694 | 34039 ft | 459 kts | 8° |
| 2026-05-04 22:04 | 44.52632 | -2.60270 | 34027 ft | 461 kts | 8° |
| 2026-05-04 22:04 | 44.58976 | -2.58842 | 34019 ft | 462 kts | 8° |
| 2026-05-04 22:05 | 44.65326 | -2.57409 | 34014 ft | 463 kts | 8° |
| 2026-05-04 22:05 | 44.70615 | -2.56213 | 34011 ft | 462 kts | 8° |
| 2026-05-04 22:06 | 44.77998 | -2.54539 | 34008 ft | 461 kts | 8° |
| 2026-05-04 22:06 | 44.84342 | -2.53097 | 34012 ft | 460 kts | 8° |
| 2026-05-04 22:07 | 44.89594 | -2.51902 | 34002 ft | 459 kts | 8° |
| 2026-05-04 22:07 | 44.95900 | -2.50464 | 34002 ft | 458 kts | 8° |
| 2026-05-04 22:08 | 45.02201 | -2.49022 | 33999 ft | 458 kts | 8° |
| 2026-05-04 22:08 | 45.08494 | -2.47578 | 34002 ft | 458 kts | 8° |
| 2026-05-04 22:09 | 45.14776 | -2.46135 | 33995 ft | 457 kts | 9° |
| 2026-05-04 22:09 | 45.21059 | -2.44689 | 33991 ft | 457 kts | 9° |
| 2026-05-04 22:10 | 45.27297 | -2.43250 | 33991 ft | 457 kts | 9° |
| 2026-05-04 22:10 | 45.33573 | -2.41800 | 33992 ft | 457 kts | 9° |
| 2026-05-04 22:11 | 45.39847 | -2.40346 | 33990 ft | 457 kts | 9° |
| 2026-05-04 22:11 | 45.46132 | -2.38886 | 33991 ft | 457 kts | 9° |
| 2026-05-04 22:12 | 45.52375 | -2.37434 | 33989 ft | 457 kts | 9° |
| 2026-05-04 22:12 | 45.58662 | -2.35966 | 33991 ft | 457 kts | 9° |
| 2026-05-04 22:13 | 45.64948 | -2.34494 | 33982 ft | 458 kts | 9° |
| 2026-05-04 22:13 | 45.71246 | -2.33018 | 33981 ft | 458 kts | 9° |
| 2026-05-04 22:14 | 45.77534 | -2.31543 | 33980 ft | 458 kts | 9° |
| 2026-05-04 22:14 | 45.83786 | -2.30070 | 33981 ft | 458 kts | 9° |
| 2026-05-04 22:15 | 45.90092 | -2.28581 | 33980 ft | 458 kts | 10° |
| 2026-05-04 22:15 | 45.96381 | -2.27093 | 33981 ft | 458 kts | 10° |
| 2026-05-04 22:16 | 46.02675 | -2.25601 | 33982 ft | 458 kts | 10° |
| 2026-05-04 22:16 | 46.08926 | -2.24105 | 33982 ft | 458 kts | 10° |
| 2026-05-04 22:17 | 46.15205 | -2.22575 | 33982 ft | 457 kts | 10° |
| 2026-05-04 22:17 | 46.21479 | -2.21037 | 33975 ft | 457 kts | 10° |
| 2026-05-04 22:18 | 46.27758 | -2.19502 | 33972 ft | 457 kts | 10° |
| 2026-05-04 22:18 | 46.34037 | -2.17963 | 33975 ft | 457 kts | 10° |
| 2026-05-04 22:19 | 46.40321 | -2.16423 | 33972 ft | 457 kts | 10° |
| 2026-05-04 22:19 | 46.46555 | -2.14887 | 33971 ft | 457 kts | 10° |
| 2026-05-04 22:20 | 46.52832 | -2.13336 | 33971 ft | 456 kts | 10° |
| 2026-05-04 22:20 | 46.59103 | -2.11785 | 33972 ft | 456 kts | 10° |
| 2026-05-04 22:21 | 46.65359 | -2.10234 | 33972 ft | 456 kts | 10° |
| 2026-05-04 22:21 | 46.71572 | -2.08688 | 33972 ft | 456 kts | 11° |
| 2026-05-04 22:22 | 46.77827 | -2.07130 | 33971 ft | 455 kts | 11° |
| 2026-05-04 22:22 | 46.84079 | -2.05570 | 33966 ft | 455 kts | 11° |
| 2026-05-04 22:23 | 46.90291 | -2.04013 | 33961 ft | 455 kts | 11° |
| 2026-05-04 22:23 | 46.96534 | -2.02443 | 33964 ft | 455 kts | 12° |
| 2026-05-04 22:24 | 47.02430 | -1.99348 | 33962 ft | 449 kts | 31° |
| 2026-05-04 22:24 | 47.07481 | -1.94043 | 33970 ft | 446 kts | 41° |
| 2026-05-04 22:25 | 47.12379 | -1.88475 | 33967 ft | 448 kts | 40° |
| 2026-05-04 22:25 | 47.14965 | -1.86051 | 33958 ft | 451 kts | 29° |
| 2026-05-04 22:25 | 47.17855 | -1.84232 | 33970 ft | 454 kts | 20° |
| 2026-05-04 22:26 | 47.23978 | -1.82213 | 33971 ft | 456 kts | 12° |
| 2026-05-04 22:26 | 47.30233 | -1.80538 | 33972 ft | 457 kts | 12° |
| 2026-05-04 22:27 | 47.36485 | -1.78819 | 33970 ft | 457 kts | 12° |
| 2026-05-04 22:27 | 47.42737 | -1.77040 | 33968 ft | 457 kts | 12° |
| 2026-05-04 22:28 | 47.48988 | -1.75236 | 33974 ft | 457 kts | 12° |
| 2026-05-04 22:28 | 47.55198 | -1.73433 | 33972 ft | 457 kts | 13° |
| 2026-05-04 22:29 | 47.61440 | -1.71618 | 33971 ft | 457 kts | 13° |
| 2026-05-04 22:29 | 47.67683 | -1.69800 | 33973 ft | 456 kts | 13° |
| 2026-05-04 22:30 | 47.73926 | -1.67978 | 33971 ft | 457 kts | 13° |
| 2026-05-04 22:30 | 47.80161 | -1.66154 | 33978 ft | 456 kts | 13° |
| 2026-05-04 22:31 | 47.86347 | -1.64340 | 33980 ft | 455 kts | 13° |
| 2026-05-04 22:31 | 47.92561 | -1.62515 | 33988 ft | 455 kts | 13° |
| 2026-05-04 22:32 | 47.98770 | -1.60686 | 33989 ft | 454 kts | 13° |
| 2026-05-04 22:32 | 48.04978 | -1.58854 | 33992 ft | 454 kts | 13° |
| 2026-05-04 22:33 | 48.11178 | -1.57018 | 33991 ft | 454 kts | 13° |
| 2026-05-04 22:33 | 48.17368 | -1.55180 | 33996 ft | 454 kts | 13° |
| 2026-05-04 22:34 | 48.23562 | -1.53338 | 33990 ft | 454 kts | 13° |
| 2026-05-04 22:34 | 48.29731 | -1.51498 | 33990 ft | 454 kts | 13° |
| 2026-05-04 22:35 | 48.35931 | -1.49643 | 33988 ft | 454 kts | 13° |
| 2026-05-04 22:35 | 48.42138 | -1.47782 | 33990 ft | 454 kts | 13° |
| 2026-05-04 22:36 | 48.48336 | -1.45923 | 33992 ft | 454 kts | 13° |
| 2026-05-04 22:36 | 48.54531 | -1.44053 | 33983 ft | 454 kts | 13° |
| 2026-05-04 22:37 | 48.60683 | -1.42195 | 33977 ft | 453 kts | 13° |
| 2026-05-04 22:37 | 48.66876 | -1.40321 | 33983 ft | 453 kts | 13° |
| 2026-05-04 22:38 | 48.73053 | -1.38412 | 33988 ft | 452 kts | 13° |
| 2026-05-04 22:38 | 48.79215 | -1.36467 | 33989 ft | 452 kts | 13° |
| 2026-05-04 22:39 | 48.85376 | -1.34518 | 33992 ft | 452 kts | 13° |
| 2026-05-04 22:39 | 48.91531 | -1.32572 | 33992 ft | 451 kts | 13° |
| 2026-05-04 22:40 | 48.97642 | -1.30638 | 33990 ft | 451 kts | 13° |
| 2026-05-04 22:40 | 49.03783 | -1.28690 | 33992 ft | 450 kts | 13° |
| 2026-05-04 22:41 | 49.09918 | -1.26738 | 33988 ft | 450 kts | 13° |
| 2026-05-04 22:41 | 49.16052 | -1.24781 | 33990 ft | 450 kts | 13° |
| 2026-05-04 22:42 | 49.22178 | -1.22822 | 33992 ft | 449 kts | 13° |
| 2026-05-04 22:42 | 49.28294 | -1.20861 | 33991 ft | 449 kts | 13° |
| 2026-05-04 22:43 | 49.34378 | -1.18905 | 33989 ft | 449 kts | 13° |
| 2026-05-04 22:43 | 49.40508 | -1.16927 | 33989 ft | 449 kts | 13° |
| 2026-05-04 22:44 | 49.46621 | -1.14952 | 33993 ft | 448 kts | 13° |
| 2026-05-04 22:44 | 49.52725 | -1.12976 | 33989 ft | 448 kts | 13° |
| 2026-05-04 22:45 | 49.58820 | -1.11027 | 33989 ft | 448 kts | 10° |
| 2026-05-04 22:45 | 49.68120 | -1.09685 | 33994 ft | 447 kts | 4° |
| 2026-05-04 22:46 | 49.74328 | -1.08916 | 34002 ft | 447 kts | 5° |
| 2026-05-04 22:46 | 49.80535 | -1.08049 | 34000 ft | 448 kts | 5° |
| 2026-05-04 22:47 | 49.86708 | -1.07204 | 34003 ft | 448 kts | 5° |
| 2026-05-04 22:47 | 49.92898 | -1.06368 | 33700 ft | 440 kts | 5° |
| 2026-05-04 22:48 | 49.95922 | -1.05957 | 33447 ft | 434 kts | 5° |
| 2026-05-04 22:48 | 49.98924 | -1.05548 | 33198 ft | 431 kts | 5° |
| 2026-05-04 22:48 | 50.01916 | -1.05137 | 32957 ft | 433 kts | 5° |
| 2026-05-04 22:48 | 50.04916 | -1.04718 | 32714 ft | 433 kts | 5° |
| 2026-05-04 22:49 | 50.07915 | -1.04296 | 32483 ft | 433 kts | 5° |
| 2026-05-04 22:49 | 50.10915 | -1.03873 | 32229 ft | 433 kts | 5° |
| 2026-05-04 22:49 | 50.13915 | -1.03444 | 32047 ft | 432 kts | 6° |
| 2026-05-04 22:49 | 50.16875 | -1.02673 | 32006 ft | 429 kts | 12° |
| 2026-05-04 22:50 | 50.22706 | -1.00546 | 32004 ft | 430 kts | 14° |
| 2026-05-04 22:50 | 50.28526 | -0.98333 | 31985 ft | 430 kts | 14° |
| 2026-05-04 22:51 | 50.34336 | -0.96188 | 31998 ft | 429 kts | 13° |
| 2026-05-04 22:51 | 50.40113 | -0.94098 | 32000 ft | 428 kts | 13° |
| 2026-05-04 22:52 | 50.45927 | -0.92004 | 32001 ft | 428 kts | 13° |
| 2026-05-04 22:52 | 50.51742 | -0.89902 | 32001 ft | 428 kts | 13° |
| 2026-05-04 22:53 | 50.56578 | -0.88150 | 32002 ft | 428 kts | 13° |
| 2026-05-04 22:53 | 50.62379 | -0.86043 | 31999 ft | 427 kts | 13° |
| 2026-05-04 22:54 | 50.68164 | -0.83939 | 31998 ft | 426 kts | 13° |
| 2026-05-04 22:54 | 50.73941 | -0.81830 | 32007 ft | 426 kts | 13° |
| 2026-05-04 22:55 | 50.79680 | -0.79728 | 32018 ft | 425 kts | 13° |
| 2026-05-04 22:55 | 50.85438 | -0.77611 | 32022 ft | 424 kts | 13° |
| 2026-05-04 22:56 | 50.91172 | -0.75500 | 32017 ft | 424 kts | 13° |
| 2026-05-04 22:56 | 50.96920 | -0.73383 | 31802 ft | 423 kts | 13° |
| 2026-05-04 22:57 | 50.99780 | -0.72328 | 31549 ft | 419 kts | 13° |
| 2026-05-04 22:57 | 51.02569 | -0.71297 | 31302 ft | 415 kts | 13° |
| 2026-05-04 22:57 | 51.05377 | -0.70258 | 31054 ft | 413 kts | 13° |
| 2026-05-04 22:57 | 51.08175 | -0.69221 | 30810 ft | 412 kts | 13° |
| 2026-05-04 22:58 | 51.10959 | -0.68187 | 30554 ft | 411 kts | 13° |
| 2026-05-04 22:58 | 51.13737 | -0.67155 | 30310 ft | 409 kts | 13° |
| 2026-05-04 22:58 | 51.16509 | -0.66122 | 30057 ft | 408 kts | 13° |
| 2026-05-04 22:58 | 51.19257 | -0.65097 | 29809 ft | 407 kts | 13° |
| 2026-05-04 22:59 | 51.22015 | -0.64068 | 29560 ft | 407 kts | 13° |
| 2026-05-04 22:59 | 51.24768 | -0.63040 | 29313 ft | 406 kts | 13° |
| 2026-05-04 22:59 | 51.27507 | -0.62015 | 29069 ft | 404 kts | 13° |
| 2026-05-04 22:59 | 51.30247 | -0.60989 | 28814 ft | 403 kts | 13° |
| 2026-05-04 23:00 | 51.32978 | -0.59966 | 28565 ft | 402 kts | 13° |
| 2026-05-04 23:00 | 51.35661 | -0.58959 | 28321 ft | 400 kts | 13° |
| 2026-05-04 23:00 | 51.38405 | -0.57928 | 28065 ft | 399 kts | 13° |
| 2026-05-04 23:00 | 51.41094 | -0.56916 | 27752 ft | 395 kts | 13° |
| 2026-05-04 23:01 | 51.43758 | -0.55911 | 27379 ft | 391 kts | 13° |
| 2026-05-04 23:01 | 51.46361 | -0.54928 | 27010 ft | 388 kts | 13° |
| 2026-05-04 23:01 | 51.49015 | -0.53924 | 26632 ft | 386 kts | 13° |
| 2026-05-04 23:01 | 51.51617 | -0.52940 | 26258 ft | 383 kts | 13° |
| 2026-05-04 23:02 | 51.54203 | -0.51961 | 25883 ft | 380 kts | 13° |
| 2026-05-04 23:02 | 51.56738 | -0.51001 | 25515 ft | 378 kts | 13° |
| 2026-05-04 23:02 | 51.59324 | -0.50019 | 25139 ft | 376 kts | 13° |
| 2026-05-04 23:02 | 51.61831 | -0.49068 | 24779 ft | 375 kts | 12° |
| 2026-05-04 23:03 | 51.64352 | -0.48108 | 24403 ft | 372 kts | 12° |
| 2026-05-04 23:03 | 51.66876 | -0.47146 | 24032 ft | 372 kts | 12° |
| 2026-05-04 23:03 | 51.69398 | -0.46184 | 23663 ft | 372 kts | 12° |
| 2026-05-04 23:03 | 51.71925 | -0.45220 | 23290 ft | 372 kts | 12° |
| 2026-05-04 23:04 | 51.74438 | -0.44259 | 22924 ft | 370 kts | 13° |
| 2026-05-04 23:04 | 51.76942 | -0.43302 | 22540 ft | 369 kts | 13° |
| 2026-05-04 23:04 | 51.79458 | -0.42621 | 22147 ft | 365 kts | 357° |
| 2026-05-04 23:04 | 51.81900 | -0.43298 | 21770 ft | 359 kts | 338° |
| 2026-05-04 23:05 | 51.84114 | -0.45105 | 21371 ft | 355 kts | 327° |
| 2026-05-04 23:05 | 51.86225 | -0.47157 | 20945 ft | 354 kts | 326° |
| 2026-05-04 23:05 | 51.88317 | -0.49248 | 20522 ft | 353 kts | 326° |
| 2026-05-04 23:05 | 51.90401 | -0.51337 | 20093 ft | 352 kts | 326° |
| 2026-05-04 23:06 | 51.92484 | -0.53410 | 19684 ft | 351 kts | 327° |
| 2026-05-04 23:06 | 51.94541 | -0.55445 | 19274 ft | 350 kts | 327° |
| 2026-05-04 23:06 | 51.96616 | -0.57489 | 18857 ft | 349 kts | 327° |
| 2026-05-04 23:06 | 51.98689 | -0.59528 | 18445 ft | 348 kts | 327° |
| 2026-05-04 23:07 | 52.00754 | -0.61557 | 18018 ft | 346 kts | 327° |
| 2026-05-04 23:07 | 52.02812 | -0.63579 | 17621 ft | 344 kts | 327° |
| 2026-05-04 23:07 | 52.04854 | -0.65585 | 17214 ft | 342 kts | 327° |
| 2026-05-04 23:07 | 52.06884 | -0.67583 | 16810 ft | 340 kts | 327° |
| 2026-05-04 23:08 | 52.08904 | -0.69570 | 16407 ft | 339 kts | 327° |
| 2026-05-04 23:08 | 52.10884 | -0.71522 | 16012 ft | 336 kts | 327° |
| 2026-05-04 23:08 | 52.12880 | -0.73493 | 15617 ft | 334 kts | 327° |
| 2026-05-04 23:08 | 52.14863 | -0.75452 | 15219 ft | 332 kts | 327° |
| 2026-05-04 23:09 | 52.16834 | -0.77403 | 14821 ft | 330 kts | 327° |
| 2026-05-04 23:09 | 52.18789 | -0.79339 | 14436 ft | 328 kts | 328° |
| 2026-05-04 23:09 | 52.20731 | -0.81262 | 14047 ft | 326 kts | 327° |
| 2026-05-04 23:09 | 52.22664 | -0.83179 | 13663 ft | 324 kts | 327° |
| 2026-05-04 23:10 | 52.24584 | -0.85084 | 13279 ft | 322 kts | 327° |
| 2026-05-04 23:10 | 52.26489 | -0.86973 | 12901 ft | 320 kts | 328° |
| 2026-05-04 23:10 | 52.28387 | -0.88851 | 12516 ft | 318 kts | 328° |
| 2026-05-04 23:10 | 52.30272 | -0.90717 | 12141 ft | 315 kts | 328° |
| 2026-05-04 23:11 | 52.32145 | -0.92573 | 11770 ft | 313 kts | 328° |
| 2026-05-04 23:11 | 52.34003 | -0.94417 | 11397 ft | 311 kts | 328° |
| 2026-05-04 23:11 | 52.35849 | -0.96252 | 11029 ft | 310 kts | 328° |
| 2026-05-04 23:11 | 52.37656 | -0.98048 | 10651 ft | 304 kts | 328° |
| 2026-05-04 23:12 | 52.39448 | -0.99814 | 10301 ft | 296 kts | 331° |
| 2026-05-04 23:12 | 52.41358 | -1.00910 | 10023 ft | 287 kts | 352° |
| 2026-05-04 23:12 | 52.43298 | -1.01058 | 9929 ft | 273 kts | 359° |
| 2026-05-04 23:12 | 52.45192 | -1.01025 | 9507 ft | 272 kts | 0° |
| 2026-05-04 23:13 | 52.47088 | -1.00970 | 9062 ft | 272 kts | 0° |
| 2026-05-04 23:13 | 52.48984 | -1.00909 | 8723 ft | 272 kts | 0° |
| 2026-05-04 23:13 | 52.50868 | -1.00848 | 8481 ft | 269 kts | 0° |
| 2026-05-04 23:13 | 52.52736 | -1.00789 | 8207 ft | 267 kts | 0° |
| 2026-05-04 23:14 | 52.54594 | -1.00731 | 7915 ft | 266 kts | 0° |
| 2026-05-04 23:14 | 52.56441 | -1.00674 | 7630 ft | 265 kts | 0° |
| 2026-05-04 23:14 | 52.58274 | -1.00618 | 7294 ft | 262 kts | 0° |
| 2026-05-04 23:14 | 52.60091 | -1.00563 | 6896 ft | 261 kts | 0° |
| 2026-05-04 23:15 | 52.61908 | -1.00509 | 6507 ft | 259 kts | 0° |
| 2026-05-04 23:15 | 52.63685 | -1.00460 | 6131 ft | 258 kts | 0° |
| 2026-05-04 23:15 | 52.65473 | -1.00414 | 5771 ft | 256 kts | 0° |
| 2026-05-04 23:15 | 52.67223 | -1.00370 | 5523 ft | 249 kts | 0° |
| 2026-05-04 23:16 | 52.68940 | -1.00329 | 5263 ft | 244 kts | 0° |
| 2026-05-04 23:16 | 52.70587 | -1.00290 | 5008 ft | 238 kts | 0° |
| 2026-05-04 23:16 | 52.72228 | -1.00253 | 4753 ft | 233 kts | 0° |
| 2026-05-04 23:16 | 52.73832 | -1.00221 | 4495 ft | 228 kts | 0° |
| 2026-05-04 23:17 | 52.75396 | -1.00196 | 4240 ft | 222 kts | 0° |
| 2026-05-04 23:17 | 52.76929 | -1.00170 | 3984 ft | 218 kts | 0° |
| 2026-05-04 23:17 | 52.78422 | -1.00150 | 3810 ft | 209 kts | 0° |
| 2026-05-04 23:17 | 52.79847 | -1.00129 | 3624 ft | 200 kts | 0° |
| 2026-05-04 23:18 | 52.81201 | -1.00362 | 3421 ft | 194 kts | 340° |
| 2026-05-04 23:18 | 52.82280 | -1.01556 | 3243 ft | 189 kts | 311° |
| 2026-05-04 23:18 | 52.82951 | -1.03387 | 3095 ft | 182 kts | 300° |
| 2026-05-04 23:18 | 52.83491 | -1.05237 | 2902 ft | 177 kts | 286° |
| 2026-05-04 23:19 | 52.83561 | -1.07214 | 2729 ft | 174 kts | 270° |
| 2026-05-04 23:19 | 52.83547 | -1.09230 | 2557 ft | 176 kts | 270° |
| 2026-05-04 23:19 | 52.83517 | -1.11238 | 2395 ft | 173 kts | 269° |
| 2026-05-04 23:19 | 52.83478 | -1.13206 | 2234 ft | 170 kts | 268° |
| 2026-05-04 23:20 | 52.83439 | -1.15132 | 2109 ft | 166 kts | 268° |
| 2026-05-04 23:20 | 52.83402 | -1.17001 | 1930 ft | 162 kts | 268° |
| 2026-05-04 23:20 | 52.83367 | -1.18813 | 1751 ft | 156 kts | 268° |
| 2026-05-04 23:20 | 52.83331 | -1.20591 | 1526 ft | 149 kts | 268° |
| 2026-05-04 23:21 | 52.83298 | -1.22261 | 1321 ft | 142 kts | 267° |
| 2026-05-04 23:21 | 52.83267 | -1.23899 | 1142 ft | 144 kts | 267° |
| 2026-05-04 23:21 | 52.83243 | -1.25548 | 972 ft | 146 kts | 267° |
| 2026-05-04 23:21 | 52.83206 | -1.27223 | 783 ft | 145 kts | 267° |
| 2026-05-04 23:22 | 52.83172 | -1.28879 | 586 ft | 144 kts | 268° |
| 2026-05-04 23:22 | 52.83145 | -1.30481 | 384 ft | 143 kts | 267° |
| 2026-05-04 23:22 | 52.83113 | -1.32059 | 306 ft | 128 kts | 268° |
| 2026-05-04 23:22 | 52.83091 | -1.33275 | 306 ft | 84 kts | 268° |
| 2026-05-04 23:23 | 52.83078 | -1.33988 | 303 ft | 44 kts | 268° |
| 2026-05-04 23:23 | 52.83070 | -1.34442 | 300 ft | 20 kts | 268° |
| 2026-05-04 23:23 | 52.83061 | -1.34600 | 304 ft | 12 kts | 245° |
| 2026-05-04 23:23 | 52.82996 | -1.34666 | 302 ft | 11 kts | 183° |
| 2026-05-04 23:24 | 52.82919 | -1.34646 | 303 ft | 11 kts | 140° |
| 2026-05-04 23:24 | 52.82905 | -1.34529 | 301 ft | 9 kts | 89° |
| 2026-05-04 23:24 | 52.82900 | -1.34440 | 302 ft | 8 kts | 121° |
| 2026-05-04 23:24 | 52.82846 | -1.34433 | 300 ft | 11 kts | 216° |
| 2026-05-04 23:25 | 52.82782 | -1.34488 | 301 ft | 11 kts | 183° |
| 2026-05-04 23:25 | 52.82714 | -1.34484 | 303 ft | 9 kts | 178° |
| 2026-05-04 23:25 | 52.82658 | -1.34482 | 299 ft | 8 kts | 178° |
| 2026-05-04 23:25 | 52.82615 | -1.34480 | 302 ft | 6 kts | 180° |
| 2026-05-04 23:26 | 52.82592 | -1.34526 | 300 ft | 6 kts | 262° |
| 2026-05-04 23:26 | 52.82591 | -1.34565 | 299 ft | 2 kts | 269° |
| 2026-05-04 23:26 | 52.82591 | -1.34572 | 299 ft | 0 kts | 268° |